createdAt,value
2022-07-28T00:05:30.252Z,4.6
2022-07-28T00:07:32.316Z,3.5
2022-07-28T00:09:34.438Z,4.1
2022-07-28T00:11:50.265Z,4.3
2022-07-28T00:13:41.603Z,3.3
2022-07-28T00:15:43.657Z,4.1
2022-07-28T00:20:50.378Z,3.5
2022-07-28T00:22:52.450Z,3.5
2022-07-28T00:24:57.558Z,3.7
2022-07-28T00:26:59.658Z,4.6
2022-07-28T00:29:01.704Z,3.6
2022-07-28T00:31:05.035Z,3.6
2022-07-28T00:33:05.851Z,4.4
2022-07-28T00:35:08.337Z,4.3
2022-07-28T00:37:13.333Z,4.7
2022-07-28T00:45:21.369Z,4.4
2022-07-28T00:47:23.418Z,4
2022-07-28T00:49:25.550Z,3.9
2022-07-28T00:51:27.537Z,4.5
2022-07-28T00:59:38.863Z,4.5
2022-07-28T01:03:43.015Z,4.6
2022-07-28T01:07:50.319Z,5
2022-07-28T01:09:52.279Z,4.5
2022-07-28T01:11:54.381Z,4.4
2022-07-28T01:16:23.754Z,3.5
2022-07-28T01:18:21.581Z,4.5
2022-07-28T01:22:28.765Z,5.3
2022-07-28T01:28:34.969Z,4.4
2022-07-28T01:30:37.039Z,5.4
2022-07-28T01:32:39.101Z,5
2022-07-28T01:34:44.248Z,4.1
2022-07-28T01:36:46.323Z,5.1
2022-07-28T01:40:50.549Z,4.9
2022-07-28T01:42:52.532Z,5.4
2022-07-28T01:44:54.625Z,5.3
2022-07-28T01:46:56.813Z,5.5
2022-07-28T01:49:01.823Z,5.4
2022-07-28T01:53:05.992Z,5.5
2022-07-28T01:57:10.087Z,5
2022-07-28T01:59:12.212Z,6.1
2022-07-28T02:01:14.343Z,5.8
2022-07-28T02:03:19.382Z,5.1
2022-07-28T02:05:21.852Z,5.6
2022-07-28T02:07:23.526Z,6.1
2022-07-28T02:12:30.348Z,5.2
2022-07-28T02:14:32.426Z,5.9
2022-07-28T02:18:39.717Z,5.6
2022-07-28T02:20:41.777Z,5.9
2022-07-28T02:22:43.871Z,5
2022-07-28T02:24:46.058Z,5.3
2022-07-28T02:26:48.143Z,6.5
2022-07-28T02:28:50.233Z,6.3
2022-07-28T02:32:57.490Z,7.4
2022-07-28T02:34:59.582Z,6.1
2022-07-28T02:37:01.757Z,6.3
2022-07-28T02:39:03.858Z,5.7
2022-07-28T02:41:05.909Z,6.8
2022-07-28T02:43:08.080Z,7.1
2022-07-28T02:45:13.294Z,7.3
2022-07-28T02:47:15.390Z,7.3
2022-07-28T02:49:17.642Z,6.8
2022-07-28T02:51:19.741Z,7.6
2022-07-28T02:53:21.911Z,7.9
2022-07-28T02:55:24.113Z,7.9
2022-07-28T02:57:26.251Z,7.8
2022-07-28T02:59:31.591Z,8.2
2022-07-28T03:01:33.829Z,6.5
2022-07-28T03:03:35.941Z,8
2022-07-28T03:04:38.670Z,7.8
2022-07-28T03:06:40.787Z,7.7
2022-07-28T03:08:42.956Z,7.9
2022-07-28T03:10:45.154Z,7.2
2022-07-28T03:20:59.364Z,7.9
2022-07-28T03:23:01.453Z,8.4
2022-07-28T03:25:03.497Z,6.5
2022-07-28T03:27:08.819Z,8.9
2022-07-28T03:29:10.986Z,7.3
2022-07-28T03:37:19.458Z,6.7
2022-07-28T03:43:28.904Z,8.4
2022-07-28T03:45:30.967Z,8.7
2022-07-28T03:47:36.935Z,7.2
2022-07-28T03:49:35.196Z,7.4
2022-07-28T03:51:37.398Z,8.5
2022-07-28T03:53:39.537Z,7.4
2022-07-28T03:55:44.763Z,8.5
2022-07-28T03:57:46.828Z,7.6
2022-07-28T03:59:48.992Z,7.5
2022-07-28T04:02:53.700Z,7.7
2022-07-28T04:04:55.693Z,7.8
2022-07-28T04:06:57.773Z,7.6
2022-07-28T04:09:03.117Z,7.9
2022-07-28T04:11:05.286Z,7.7
2022-07-28T04:13:07.479Z,8.8
2022-07-28T04:15:09.646Z,7.5
2022-07-28T04:17:11.840Z,8.1
2022-07-28T04:19:13.875Z,8.2
2022-07-28T04:21:16.021Z,7.9
2022-07-28T04:23:21.281Z,7.6
2022-07-28T04:25:23.441Z,9.2
2022-07-28T04:31:29.856Z,8.7
2022-07-28T04:37:39.071Z,8.1
2022-07-28T04:39:41.161Z,8.5
2022-07-28T04:41:43.364Z,9
2022-07-28T04:43:45.424Z,8.1
2022-07-28T04:45:53.749Z,8
2022-07-28T04:47:49.525Z,7.5
2022-07-28T04:49:51.584Z,7.4
2022-07-28T04:51:57.428Z,8
2022-07-28T04:53:58.781Z,7.4
2022-07-28T04:56:00.836Z,8
2022-07-28T05:00:25.740Z,7.3
2022-07-28T05:02:27.786Z,8
2022-07-28T05:06:34.995Z,7.9
2022-07-28T05:08:37.066Z,8.3
2022-07-28T05:10:39.115Z,6
2022-07-28T05:14:43.279Z,6.7
2022-07-28T05:18:50.426Z,5.6
2022-07-28T05:22:54.527Z,6.8
2022-07-28T05:26:58.653Z,7.2
2022-07-28T05:29:00.728Z,7.5
2022-07-28T05:31:02.781Z,6
2022-07-28T05:33:07.884Z,7
2022-07-28T05:35:09.942Z,6.7
2022-07-28T05:37:12.130Z,5.9
2022-07-28T05:41:16.170Z,5.8
2022-07-28T05:51:29.651Z,4.8
2022-07-28T05:52:32.060Z,5.4
2022-07-28T05:54:34.114Z,5.4
2022-07-28T05:56:36.318Z,5.2
2022-07-28T05:58:38.227Z,4.7
2022-07-28T06:00:43.386Z,4.3
2022-07-28T06:08:51.578Z,3.9
2022-07-28T06:10:53.597Z,3.9
2022-07-28T06:12:55.663Z,4.5
2022-07-28T06:17:02.867Z,3.2
2022-07-28T06:25:10.932Z,2.2
2022-07-28T06:33:22.126Z,2.6
2022-07-28T06:37:26.588Z,2
2022-07-28T06:39:28.626Z,1.7
2022-07-28T06:41:30.646Z,2.4
2022-07-28T06:45:37.750Z,1.7
2022-07-28T06:48:42.363Z,1.8
2022-07-28T06:52:46.802Z,1.6
2022-07-28T06:54:49.023Z,1.1
2022-07-28T06:56:53.905Z,1.8
2022-07-28T07:07:03.978Z,1.7
2022-07-28T07:11:11.058Z,1.7
2022-07-28T07:13:13.987Z,1
2022-07-28T07:21:21.053Z,1.3
2022-07-28T07:29:32.168Z,0.7
2022-07-28T07:31:34.257Z,0.9
2022-07-28T07:35:38.219Z,1.1
2022-07-28T07:39:45.233Z,1.1
2022-07-28T07:44:51.744Z,1.2
2022-07-28T07:46:53.833Z,1.1
2022-07-28T07:48:55.828Z,0.9
2022-07-28T07:53:02.856Z,1
2022-07-28T07:55:04.879Z,1.1
2022-07-28T07:57:06.840Z,1.1
2022-07-28T07:59:08.851Z,1.2
2022-07-28T08:01:10.863Z,0.9
2022-07-28T08:03:12.869Z,0.9
2022-07-28T08:05:14.899Z,1.2
2022-07-28T08:07:22.003Z,1.1
2022-07-28T08:09:21.949Z,0.8
2022-07-28T08:11:23.975Z,1.5
2022-07-28T08:13:26.001Z,1.1
2022-07-28T08:15:27.976Z,1
2022-07-28T08:17:30.029Z,1.1
2022-07-28T08:19:31.983Z,1.3
2022-07-28T08:21:37.083Z,1.2
2022-07-28T08:25:41.083Z,0.9
2022-07-28T08:29:45.100Z,1.3
2022-07-28T08:31:47.146Z,0.8
2022-07-28T08:37:56.191Z,1
2022-07-28T08:39:58.240Z,1.1
2022-07-28T08:42:20.938Z,1.6
2022-07-28T08:44:22.902Z,1.1
2022-07-28T08:46:25.001Z,0.9
2022-07-28T08:52:33.997Z,0.9
2022-07-28T08:54:35.994Z,0.7
2022-07-28T08:56:37.992Z,0.9
2022-07-28T08:58:39.978Z,1.6
2022-07-28T09:00:42.033Z,0.8
2022-07-28T09:02:47.129Z,0.8
2022-07-28T09:04:49.059Z,0.9
2022-07-28T09:10:55.487Z,1.1
2022-07-28T09:12:57.432Z,1.2
2022-07-28T09:14:59.438Z,0.8
2022-07-28T09:17:05.330Z,1.1
2022-07-28T09:33:42.270Z,1
2022-07-28T09:35:25.383Z,0.9
2022-07-28T09:42:33.852Z,1
2022-07-28T09:48:43.088Z,1
2022-07-28T09:50:44.845Z,3.6
2022-07-28T09:52:46.836Z,1.1
2022-07-28T09:54:48.816Z,0.8
2022-07-28T10:02:59.855Z,1.2
2022-07-28T10:07:03.789Z,0.9
2022-07-28T10:09:05.785Z,1.2
2022-07-28T10:15:14.806Z,1
2022-07-28T10:17:16.781Z,0.7
2022-07-28T10:25:24.651Z,1
2022-07-28T10:27:29.712Z,1.2
2022-07-28T10:29:31.693Z,1.1
2022-07-28T10:31:33.648Z,1
2022-07-28T10:32:36.164Z,1
2022-07-28T10:34:38.136Z,1.2
2022-07-28T10:36:40.110Z,1.7
2022-07-28T10:40:47.140Z,1.3
2022-07-28T10:42:49.087Z,0.9
2022-07-28T10:55:03.972Z,1.1
2022-07-28T10:57:06.341Z,1.2
2022-07-28T11:03:13.763Z,0.9
2022-07-28T11:05:13.806Z,1.1
2022-07-28T11:07:15.765Z,1.1
2022-07-28T11:09:20.810Z,1.2
2022-07-28T11:11:22.766Z,1.1
2022-07-28T11:13:24.727Z,1.1
2022-07-28T11:15:26.659Z,1.1
2022-07-28T11:17:33.743Z,1.4
2022-07-28T11:23:37.556Z,1
2022-07-28T11:25:39.494Z,0.9
2022-07-28T11:27:44.517Z,0.8
2022-07-28T11:28:43.968Z,1.2
2022-07-28T11:30:46.045Z,0.7
2022-07-28T11:36:54.842Z,1.3
2022-07-28T11:49:06.533Z,1
2022-07-28T11:55:15.381Z,0.9
2022-07-28T11:57:17.321Z,1.1
2022-07-28T12:01:21.242Z,0.9
2022-07-28T12:05:28.185Z,0.7
2022-07-28T12:11:34.026Z,0.6
2022-07-28T12:13:35.941Z,0.7
2022-07-28T12:15:37.926Z,0.8
2022-07-28T12:17:40.683Z,1.2
2022-07-28T12:19:44.829Z,0.8
2022-07-28T12:21:48.222Z,0.6
2022-07-28T12:23:49.517Z,0.6
2022-07-28T12:26:05.492Z,1.1
2022-07-28T12:28:07.366Z,1
2022-07-28T12:30:09.279Z,0.9
2022-07-28T12:32:14.352Z,1.1
2022-07-28T12:34:16.587Z,0.8
2022-07-28T12:44:25.824Z,0.8
2022-07-28T12:50:34.639Z,0.6
2022-07-28T12:52:36.568Z,0.6
2022-07-28T12:54:38.448Z,0.8
2022-07-28T12:56:40.390Z,0.9
2022-07-28T12:58:42.281Z,0.7
2022-07-28T13:00:47.357Z,0.6
2022-07-28T13:02:49.269Z,0.8
2022-07-28T13:04:51.111Z,0.6
2022-07-28T13:06:52.995Z,0.6
2022-07-28T13:08:54.915Z,0.9
2022-07-28T13:10:59.146Z,2
2022-07-28T13:12:58.716Z,0.8
2022-07-28T13:15:03.681Z,1.5
2022-07-28T13:17:05.585Z,1.1
2022-07-28T13:19:07.459Z,0.9
2022-07-28T13:20:09.947Z,1.2
2022-07-28T13:22:11.817Z,0.9
2022-07-28T13:24:13.959Z,0.7
2022-07-28T13:26:15.555Z,0.7
2022-07-28T13:28:20.605Z,0.5
2022-07-28T13:30:22.494Z,0.6
2022-07-28T13:32:24.710Z,0.6
2022-07-28T13:34:26.192Z,0.9
2022-07-28T13:36:28.071Z,1.1
2022-07-28T13:38:29.935Z,1.1
2022-07-28T13:40:31.810Z,1
2022-07-28T13:44:38.660Z,0.7
2022-07-28T13:50:44.299Z,1
2022-07-28T13:54:48.028Z,0.5
2022-07-28T14:02:58.669Z,0.6
2022-07-28T14:05:00.486Z,0.8
2022-07-28T14:07:02.344Z,0.9
2022-07-28T14:11:09.136Z,0.8
2022-07-28T14:13:10.984Z,0.8
2022-07-28T14:15:12.818Z,0.6
2022-07-28T14:18:17.133Z,1.1
2022-07-28T14:20:19.005Z,0.8
2022-07-28T14:22:20.806Z,1
2022-07-28T14:24:25.740Z,0.7
2022-07-28T14:26:35.552Z,0.9
2022-07-28T14:28:29.404Z,0.9
2022-07-28T14:30:31.220Z,0.7
2022-07-28T14:32:33.123Z,0.6
2022-07-28T14:34:34.873Z,0.6
2022-07-28T14:36:36.715Z,0.7
2022-07-28T14:40:43.470Z,0.9
2022-07-28T14:44:47.138Z,1
2022-07-28T14:46:49.020Z,0.5
2022-07-28T14:48:50.949Z,0.9
2022-07-28T14:50:52.691Z,0.6
2022-07-28T14:54:59.472Z,0.8
2022-07-28T15:03:08.408Z,0.7
2022-07-28T15:05:10.009Z,1
2022-07-28T15:07:14.966Z,1
2022-07-28T15:09:16.764Z,1.2
2022-07-28T15:11:18.563Z,1.1
2022-07-28T15:12:21.034Z,1.1
2022-07-28T15:14:22.817Z,0.8
2022-07-28T15:20:31.350Z,0.7
2022-07-28T15:22:33.128Z,0.9
2022-07-28T15:28:38.562Z,0.6
2022-07-28T15:30:43.398Z,0.6
2022-07-28T15:32:56.299Z,1.1
2022-07-28T15:34:47.051Z,1.1
2022-07-28T15:36:48.823Z,0.7
2022-07-28T15:38:51.008Z,0.8
2022-07-28T15:40:52.973Z,1.1
2022-07-28T15:42:54.172Z,1
2022-07-28T15:45:00.768Z,0.5
2022-07-28T15:46:57.795Z,1
2022-07-28T15:49:02.729Z,0.8
2022-07-28T15:53:06.275Z,0.5
2022-07-28T15:55:08.071Z,1.4
2022-07-28T15:57:09.869Z,0.6
2022-07-28T15:59:11.663Z,0.8
2022-07-28T16:01:13.481Z,0.9
2022-07-28T16:03:18.402Z,1
2022-07-28T16:05:20.165Z,1
2022-07-28T16:07:22.411Z,0.6
2022-07-28T16:09:45.966Z,1.1
2022-07-28T16:11:46.262Z,1.1
2022-07-28T16:13:48.024Z,1.1
2022-07-28T16:15:52.968Z,0.6
2022-07-28T16:17:54.681Z,0.8
2022-07-28T16:19:56.451Z,0.6
2022-07-28T16:21:58.191Z,0.7
2022-07-28T16:23:59.982Z,1.1
2022-07-28T16:26:01.765Z,0.6
2022-07-28T16:28:03.534Z,0.7
2022-07-28T16:30:08.440Z,0.9
2022-07-28T16:32:10.219Z,1
2022-07-28T16:34:12.272Z,0.5
2022-07-28T16:38:15.607Z,0.7
2022-07-28T16:42:19.236Z,1.2
2022-07-28T16:46:26.050Z,0.8
2022-07-28T16:48:27.880Z,0.9
2022-07-28T16:50:29.741Z,0.8
2022-07-28T16:52:31.592Z,0.6
2022-07-28T16:54:33.493Z,0.9
2022-07-28T16:58:40.343Z,1.3
2022-07-28T17:00:42.259Z,0.8
2022-07-28T17:02:44.154Z,1.1
2022-07-28T17:03:46.646Z,1.1
2022-07-28T17:05:48.558Z,1.3
2022-07-28T17:16:01.288Z,1
2022-07-28T17:22:07.102Z,0.8
2022-07-28T17:24:09.001Z,0.7
2022-07-28T17:32:19.862Z,1.5
2022-07-28T17:34:21.824Z,1
2022-07-28T17:36:23.766Z,0.8
2022-07-28T17:38:30.961Z,1.1
2022-07-28T17:40:30.786Z,0.8
2022-07-28T17:42:32.731Z,0.9
2022-07-28T17:44:34.697Z,0.7
2022-07-28T17:46:36.770Z,1.2
2022-07-28T17:48:38.882Z,0.8
2022-07-28T17:50:40.595Z,1
2022-07-28T17:52:42.616Z,1.5
2022-07-28T17:54:47.629Z,1.5
2022-07-28T17:56:49.613Z,1.2
2022-07-28T17:59:54.104Z,1.2
2022-07-28T18:04:00.667Z,1.3
2022-07-28T18:12:09.098Z,0.9
2022-07-28T18:14:11.076Z,1.4
2022-07-28T18:28:28.065Z,1.2
2022-07-28T18:30:30.057Z,1.4
2022-07-28T18:32:32.035Z,0.8
2022-07-28T18:34:34.044Z,1.7
2022-07-28T18:36:39.095Z,1.3
2022-07-28T18:38:41.105Z,1
2022-07-28T18:40:43.085Z,1.2
2022-07-28T18:42:45.062Z,1.1
2022-07-28T18:44:47.074Z,1.6
2022-07-28T18:46:49.148Z,0.9
2022-07-28T18:48:56.616Z,1.4
2022-07-28T18:50:56.115Z,1
2022-07-28T18:52:58.101Z,1.3
2022-07-28T18:55:00.179Z,1.3
2022-07-28T18:56:02.642Z,1.3
2022-07-28T18:58:04.651Z,1.8
2022-07-28T19:00:06.648Z,1.9
2022-07-28T19:02:08.787Z,1.4
2022-07-28T19:04:14.136Z,0.9
2022-07-28T19:06:15.743Z,0.8
2022-07-28T19:08:17.739Z,2.4
2022-07-28T19:10:19.744Z,1.6
2022-07-28T19:12:21.745Z,1.6
2022-07-28T19:14:23.743Z,1.4
2022-07-28T19:16:25.854Z,0.9
2022-07-28T19:18:30.846Z,1.5
2022-07-28T19:20:32.896Z,1
2022-07-28T19:22:34.879Z,1.7
2022-07-28T19:24:36.892Z,1
2022-07-28T19:26:38.918Z,0.9
2022-07-28T19:28:40.915Z,1.1
2022-07-28T19:30:42.989Z,1.3
2022-07-28T19:32:48.066Z,1.4
2022-07-28T19:34:50.103Z,1.6
2022-07-28T19:36:52.084Z,1.3
2022-07-28T19:38:54.262Z,1.5
2022-07-28T19:40:56.140Z,1.2
2022-07-28T19:42:58.192Z,1.2
2022-07-28T19:45:00.220Z,1.3
2022-07-28T19:47:05.299Z,1.2
2022-07-28T19:49:07.390Z,1.4
2022-07-28T19:51:09.370Z,0.9
2022-07-28T19:53:32.027Z,1.1
2022-07-28T19:55:33.068Z,1.3
2022-07-28T19:57:35.090Z,2.1
2022-07-28T19:59:40.210Z,1
2022-07-28T20:01:46.606Z,1.7
2022-07-28T20:05:46.266Z,1.2
2022-07-28T20:07:48.323Z,1.3
2022-07-28T20:09:50.347Z,1.7
2022-07-28T20:11:52.369Z,1.4
2022-07-28T20:13:57.473Z,1.2
2022-07-28T20:15:59.492Z,1.1
2022-07-28T20:18:01.549Z,1
2022-07-28T20:32:18.805Z,1.5
2022-07-28T20:34:20.825Z,1.6
2022-07-28T20:47:38.660Z,1.8
2022-07-28T20:49:40.687Z,2.8
2022-07-28T20:51:45.282Z,1
2022-07-28T20:55:51.371Z,1.4
2022-07-28T20:57:54.032Z,1.4
2022-07-28T20:59:55.434Z,1.7
2022-07-28T21:03:59.509Z,1.4
2022-07-28T21:06:01.550Z,2.1
2022-07-28T21:08:05.718Z,2
2022-07-28T21:10:08.679Z,1.3
2022-07-28T21:12:10.696Z,1.7
2022-07-28T21:14:13.096Z,1.4
2022-07-28T21:18:16.828Z,1.7
2022-07-28T21:20:18.844Z,1.4
2022-07-28T21:32:34.128Z,1.7
2022-07-28T21:34:36.180Z,1.7
2022-07-28T21:38:43.328Z,1.6
2022-07-28T21:40:45.379Z,1.7
2022-07-28T21:42:47.429Z,1.7
2022-07-28T21:43:49.941Z,1.3
2022-07-28T21:45:52.075Z,2
2022-07-28T21:47:54.030Z,1.7
2022-07-28T21:49:56.056Z,1.6
2022-07-28T21:52:01.229Z,1.5
2022-07-28T21:54:03.338Z,1.6
2022-07-28T21:58:07.300Z,1.9
2022-07-28T22:00:09.364Z,1.1
2022-07-28T22:04:13.889Z,2
2022-07-28T22:06:18.611Z,1.6
2022-07-28T22:08:20.609Z,1.5
2022-07-28T22:10:22.656Z,1.6
2022-07-28T22:12:24.712Z,2.1
2022-07-28T22:14:26.761Z,1.5
2022-07-28T22:16:28.861Z,1.9
2022-07-28T22:20:35.977Z,1.4
2022-07-28T22:22:38.060Z,2
2022-07-28T22:24:40.113Z,1.9
2022-07-28T22:26:42.145Z,2
2022-07-28T22:28:44.187Z,2
2022-07-28T22:32:48.301Z,1.7
2022-07-28T22:34:53.409Z,2.2
2022-07-28T22:36:55.462Z,2
2022-07-28T22:38:57.509Z,2.2
2022-07-28T22:40:00.107Z,1.6
2022-07-28T22:44:04.176Z,1.9
2022-07-28T22:50:13.399Z,1.7
2022-07-28T22:54:17.817Z,1.7
2022-07-28T22:58:21.624Z,2.2
2022-07-28T23:00:23.690Z,2
2022-07-28T23:02:28.819Z,2
2022-07-28T23:04:30.849Z,1.7
2022-07-28T23:06:32.910Z,2.5
2022-07-28T23:08:34.974Z,2.4
2022-07-28T23:10:37.056Z,2.4
2022-07-28T23:12:39.101Z,2.6
2022-07-28T23:14:41.148Z,2.4
2022-07-28T23:16:46.364Z,2.8
2022-07-28T23:18:48.313Z,2.8
2022-07-28T23:20:50.392Z,2.5
2022-07-28T23:22:52.436Z,2.8
2022-07-28T23:24:54.509Z,2
2022-07-28T23:33:05.766Z,2.5
2022-07-28T23:35:07.831Z,2.3
2022-07-28T23:37:30.479Z,2.8
2022-07-28T23:45:41.740Z,2.6
2022-07-28T23:55:51.793Z,2.6
2022-07-28T23:59:59.103Z,2.3
